createdAt,value
2018-12-12T00:00:39.740Z,8.63
2018-12-12T00:03:08.086Z,10.25
2018-12-12T00:05:36.436Z,5.97
2018-12-12T00:08:04.858Z,7.47
2018-12-12T00:10:33.442Z,9.73
2018-12-12T00:13:01.863Z,9.85
2018-12-12T00:15:30.608Z,9.08
2018-12-12T00:17:59.365Z,6.90
2018-12-12T00:20:27.792Z,14.78
2018-12-12T00:22:56.121Z,8.38
2018-12-12T00:25:24.471Z,8.15
2018-12-12T00:27:52.829Z,7.03
2018-12-12T00:30:21.135Z,7.92
2018-12-12T00:32:49.484Z,6.40
2018-12-12T00:35:17.819Z,11.88
2018-12-12T00:37:46.143Z,10.63
2018-12-12T00:40:14.477Z,11.22
2018-12-12T00:42:42.896Z,7.97
2018-12-12T00:45:11.218Z,8.65
2018-12-12T00:47:39.573Z,12.93
2018-12-12T00:50:08.086Z,9.40
2018-12-12T00:52:36.420Z,9.10
2018-12-12T00:55:04.859Z,8.08
2018-12-12T00:57:33.294Z,8.20
2018-12-12T01:00:01.650Z,8.03
2018-12-12T01:02:29.971Z,8.83
2018-12-12T01:04:58.338Z,8.23
2018-12-12T01:07:26.770Z,12.82
2018-12-12T01:09:55.102Z,8.05
2018-12-12T01:12:23.532Z,7.72
2018-12-12T01:14:51.877Z,11.50
2018-12-12T01:17:20.209Z,8.35
2018-12-12T01:19:48.637Z,8.43
2018-12-12T01:22:16.990Z,10.55
2018-12-12T01:24:45.556Z,7.97
2018-12-12T01:27:14.005Z,11.35
2018-12-12T01:29:42.311Z,9.53
2018-12-12T01:32:10.683Z,13.60
2018-12-12T01:34:39.058Z,9.50
2018-12-12T01:37:07.521Z,12.07
2018-12-12T01:42:15.981Z,11.83
2018-12-12T01:44:44.350Z,15.05
2018-12-12T01:47:12.730Z,18.67
2018-12-12T01:49:41.060Z,9.35
2018-12-12T01:52:09.486Z,11.15
2018-12-12T01:54:37.808Z,12.40
2018-12-12T01:57:06.263Z,15.05
2018-12-12T01:59:34.597Z,13.72
2018-12-12T02:02:02.919Z,18.75
2018-12-12T02:04:31.255Z,15.53
2018-12-12T02:06:59.627Z,27.15
2018-12-12T02:09:27.965Z,17.90
2018-12-12T02:11:56.330Z,16.27
2018-12-12T02:14:24.659Z,20.72
2018-12-12T02:16:52.982Z,16.45
2018-12-12T02:19:21.323Z,14.90
2018-12-12T02:21:49.656Z,12.70
2018-12-12T02:24:18.003Z,15.40
2018-12-12T02:26:46.388Z,15.15
2018-12-12T02:29:14.731Z,13.00
2018-12-12T02:31:43.042Z,14.43
2018-12-12T02:34:11.407Z,11.43
2018-12-12T02:36:39.735Z,20.97
2018-12-12T02:39:08.465Z,14.93
2018-12-12T02:41:36.778Z,13.75
2018-12-12T02:44:05.088Z,11.10
2018-12-12T02:46:33.461Z,10.48
2018-12-12T02:49:01.763Z,10.60
2018-12-12T02:51:30.074Z,10.05
2018-12-12T02:53:58.514Z,8.58
2018-12-12T02:56:26.853Z,10.50
2018-12-12T02:58:55.268Z,17.90
2018-12-12T03:01:23.599Z,19.27
2018-12-12T03:03:52.018Z,12.95
2018-12-12T03:06:20.533Z,8.20
2018-12-12T03:08:48.860Z,12.53
2018-12-12T03:11:19.224Z,9.58
2018-12-12T03:13:47.531Z,10.20
2018-12-12T03:16:15.855Z,10.93
2018-12-12T03:18:44.193Z,12.55
2018-12-12T03:21:12.614Z,10.75
2018-12-12T03:23:41.015Z,11.05
2018-12-12T03:26:09.460Z,8.03
2018-12-12T03:28:37.791Z,11.73
2018-12-12T03:31:06.128Z,11.60
2018-12-12T03:33:34.478Z,13.88
2018-12-12T03:36:02.862Z,11.40
2018-12-12T03:38:31.201Z,12.70
2018-12-12T03:40:59.800Z,11.08
2018-12-12T03:43:28.143Z,14.43
2018-12-12T03:45:56.505Z,12.20
2018-12-12T03:48:24.969Z,10.78
2018-12-12T03:50:53.334Z,11.50
2018-12-12T03:53:21.679Z,14.60
2018-12-12T03:55:50.030Z,9.48
2018-12-12T03:58:18.446Z,10.95
2018-12-12T04:00:46.794Z,11.95
2018-12-12T04:03:15.144Z,12.73
2018-12-12T04:05:43.556Z,12.23
2018-12-12T04:08:11.888Z,11.48
2018-12-12T04:13:20.094Z,16.02
2018-12-12T04:18:21.394Z,12.00
2018-12-12T04:20:49.719Z,11.97
2018-12-12T04:23:18.070Z,21.57
2018-12-12T04:25:46.378Z,16.85
2018-12-12T04:28:14.723Z,13.15
2018-12-12T04:30:43.049Z,13.83
2018-12-12T04:33:11.535Z,17.37
2018-12-12T04:35:39.897Z,13.72
2018-12-12T04:38:08.267Z,16.27
2018-12-12T04:40:36.580Z,14.75
2018-12-12T04:43:04.911Z,12.93
2018-12-12T04:45:33.381Z,12.68
2018-12-12T04:48:01.721Z,13.50
2018-12-12T04:50:30.083Z,15.85
2018-12-12T04:52:58.441Z,10.90
2018-12-12T04:55:26.783Z,14.63
2018-12-12T04:57:55.206Z,12.65
2018-12-12T05:00:23.547Z,11.93
2018-12-12T05:02:52.489Z,15.63
2018-12-12T05:05:20.829Z,10.10
2018-12-12T05:07:49.136Z,13.62
2018-12-12T05:10:17.463Z,15.53
2018-12-12T05:12:45.819Z,18.00
2018-12-12T05:15:14.212Z,13.80
2018-12-12T05:17:42.509Z,11.78
2018-12-12T05:20:10.853Z,15.70
2018-12-12T05:22:39.187Z,13.50
2018-12-12T05:25:11.108Z,13.88
2018-12-12T05:27:39.450Z,13.83
2018-12-12T05:30:07.909Z,13.15
2018-12-12T05:32:36.393Z,14.03
2018-12-12T05:35:05.032Z,9.00
2018-12-12T05:37:33.422Z,11.03
2018-12-12T05:40:02.021Z,9.60
2018-12-12T05:42:30.438Z,14.87
2018-12-12T05:44:58.787Z,9.30
2018-12-12T05:47:27.115Z,13.05
2018-12-12T05:49:55.434Z,12.13
2018-12-12T05:52:23.775Z,12.13
2018-12-12T05:54:52.121Z,17.32
2018-12-12T05:57:20.463Z,9.70
2018-12-12T05:59:48.811Z,12.07
2018-12-12T06:02:17.147Z,10.08
2018-12-12T06:04:45.484Z,15.43
2018-12-12T06:07:13.913Z,10.43
2018-12-12T06:09:42.238Z,14.90
2018-12-12T06:12:10.568Z,12.50
2018-12-12T06:14:38.967Z,16.00
2018-12-12T06:17:07.466Z,17.62
2018-12-12T06:19:35.786Z,17.25
2018-12-12T06:22:04.210Z,14.00
2018-12-12T06:24:32.653Z,13.75
2018-12-12T06:27:00.976Z,11.50
2018-12-12T06:29:29.300Z,11.63
2018-12-12T06:31:57.633Z,12.75
2018-12-12T06:34:25.973Z,14.50
2018-12-12T06:36:54.304Z,20.08
2018-12-12T06:39:22.671Z,13.45
2018-12-12T06:41:50.999Z,10.10
2018-12-12T06:44:19.351Z,14.83
2018-12-12T06:46:47.688Z,15.05
2018-12-12T06:49:16.053Z,13.05
2018-12-12T06:51:44.371Z,13.35
2018-12-12T06:54:12.731Z,14.20
2018-12-12T06:56:41.083Z,9.55
2018-12-12T06:59:09.411Z,12.70
2018-12-12T07:01:38.069Z,9.95
2018-12-12T07:04:06.417Z,8.55
2018-12-12T07:06:34.716Z,9.05
2018-12-12T07:09:04.951Z,14.33
2018-12-12T07:11:33.304Z,10.13
2018-12-12T07:14:01.634Z,11.48
2018-12-12T07:16:29.966Z,11.97
2018-12-12T07:18:58.304Z,12.23
2018-12-12T07:21:26.622Z,14.50
2018-12-12T07:23:54.957Z,8.00
2018-12-12T07:26:23.280Z,8.18
2018-12-12T07:28:51.687Z,7.12
2018-12-12T07:31:20.095Z,6.72
2018-12-12T07:33:48.416Z,13.68
2018-12-12T07:36:16.777Z,7.67
2018-12-12T07:38:45.077Z,8.30
2018-12-12T07:41:13.447Z,8.80
2018-12-12T07:43:41.773Z,7.80
2018-12-12T07:46:10.124Z,9.83
2018-12-12T07:48:38.442Z,7.15
2018-12-12T07:51:06.853Z,8.88
2018-12-12T07:53:35.214Z,8.15
2018-12-12T07:56:03.649Z,9.05
2018-12-12T07:58:32.003Z,8.53
2018-12-12T08:01:00.335Z,17.12
2018-12-12T08:03:28.694Z,20.15
2018-12-12T08:05:57.060Z,25.92
2018-12-12T08:08:25.452Z,19.62
2018-12-12T08:10:53.813Z,32.17
2018-12-12T08:13:22.132Z,23.67
2018-12-12T08:15:50.507Z,25.45
2018-12-12T08:18:18.998Z,13.10
2018-12-12T08:20:47.334Z,15.88
2018-12-12T08:23:16.013Z,14.47
2018-12-12T08:25:44.685Z,20.82
2018-12-12T08:28:13.012Z,15.28
2018-12-12T08:30:41.349Z,12.98
2018-12-12T08:33:11.253Z,12.90
2018-12-12T08:35:39.932Z,17.20
2018-12-12T08:38:08.341Z,14.60
2018-12-12T08:40:36.727Z,20.05
2018-12-12T08:43:05.081Z,20.75
2018-12-12T08:45:33.526Z,22.77
2018-12-12T08:48:01.863Z,22.77
2018-12-12T08:50:30.179Z,19.90
2018-12-12T08:52:58.532Z,27.85
2018-12-12T08:55:26.933Z,8.45
2018-12-12T08:57:55.251Z,12.33
2018-12-12T09:00:23.580Z,12.65
2018-12-12T09:02:51.958Z,12.65
2018-12-12T09:05:20.379Z,9.40
2018-12-12T09:07:48.721Z,14.20
2018-12-12T09:10:17.070Z,11.03
2018-12-12T09:12:45.454Z,12.00
2018-12-12T09:15:13.800Z,13.08
2018-12-12T09:17:42.136Z,9.20
2018-12-12T09:20:10.502Z,11.08
2018-12-12T09:22:40.860Z,9.65
2018-12-12T09:25:11.457Z,16.23
2018-12-12T09:27:40.949Z,15.83
2018-12-12T09:30:09.763Z,17.02
2018-12-12T09:35:18.227Z,15.98
2018-12-12T09:37:46.605Z,11.95
2018-12-12T09:40:15.005Z,13.13
2018-12-12T09:42:43.368Z,16.93
2018-12-12T09:45:11.742Z,15.58
2018-12-12T09:47:40.039Z,10.48
2018-12-12T09:50:08.362Z,15.32
2018-12-12T09:52:36.705Z,14.15
2018-12-12T09:55:05.836Z,9.83
2018-12-12T09:57:34.163Z,14.13
2018-12-12T10:00:02.579Z,11.50
2018-12-12T10:02:30.943Z,11.65
2018-12-12T10:05:00.237Z,13.00
2018-12-12T10:07:28.632Z,13.95
2018-12-12T10:09:56.991Z,14.98
2018-12-12T10:12:25.369Z,16.62
2018-12-12T10:14:53.803Z,13.68
2018-12-12T10:17:22.172Z,13.30
2018-12-12T10:19:50.483Z,17.27
2018-12-12T10:22:18.816Z,13.43
2018-12-12T10:24:47.198Z,9.85
2018-12-12T10:27:15.613Z,12.73
2018-12-12T10:29:43.957Z,12.23
2018-12-12T10:32:12.328Z,11.30
2018-12-12T10:34:40.655Z,9.20
2018-12-12T10:37:08.997Z,11.55
2018-12-12T10:39:37.319Z,12.28
2018-12-12T10:42:05.766Z,12.03
2018-12-12T10:44:34.103Z,13.00
2018-12-12T10:47:02.510Z,11.93
2018-12-12T10:49:30.855Z,10.03
2018-12-12T10:51:59.198Z,12.47
2018-12-12T10:54:27.607Z,10.43
2018-12-12T10:56:55.963Z,12.13
2018-12-12T10:59:24.298Z,9.58
2018-12-12T11:01:54.679Z,13.05
2018-12-12T11:04:23.020Z,11.12
2018-12-12T11:06:51.429Z,11.70
2018-12-12T11:09:19.774Z,9.08
2018-12-12T11:11:48.122Z,8.65
2018-12-12T11:14:16.468Z,11.45
2018-12-12T11:16:44.801Z,9.68
2018-12-12T11:19:13.150Z,7.40
2018-12-12T11:21:41.568Z,7.03
2018-12-12T11:24:09.895Z,5.70
2018-12-12T11:26:38.243Z,3.45
2018-12-12T11:29:06.603Z,3.35
2018-12-12T11:31:34.987Z,3.72
2018-12-12T11:34:03.368Z,5.33
2018-12-12T11:36:31.802Z,2.65
2018-12-12T11:39:00.128Z,2.40
2018-12-12T11:41:28.450Z,2.80
2018-12-12T11:43:56.797Z,3.20
2018-12-12T11:46:25.371Z,3.60
2018-12-12T11:48:53.757Z,3.50
2018-12-12T11:51:22.063Z,2.87
2018-12-12T11:53:50.393Z,3.95
2018-12-12T11:56:18.808Z,4.58
2018-12-12T11:58:47.167Z,3.17
2018-12-12T12:01:15.500Z,3.77
2018-12-12T12:03:43.839Z,2.75
2018-12-12T12:06:12.158Z,3.08
2018-12-12T12:08:40.504Z,2.27
2018-12-12T12:11:08.851Z,1.82
2018-12-12T12:13:37.272Z,3.55
2018-12-12T12:16:05.652Z,2.15
2018-12-12T12:18:33.986Z,2.37
2018-12-12T12:21:02.326Z,3.70
2018-12-12T12:23:30.675Z,1.87
2018-12-12T12:25:59.020Z,2.80
2018-12-12T12:28:27.372Z,2.70
2018-12-12T12:30:55.727Z,2.43
2018-12-12T12:33:24.064Z,2.17
2018-12-12T12:35:52.390Z,3.90
2018-12-12T12:38:20.695Z,3.67
2018-12-12T12:40:49.149Z,3.23
2018-12-12T12:43:17.501Z,2.60
2018-12-12T12:45:46.427Z,3.75
2018-12-12T12:48:14.863Z,3.35
2018-12-12T12:50:44.180Z,2.95
2018-12-12T12:53:12.653Z,2.45
2018-12-12T12:55:41.215Z,3.35
2018-12-12T12:58:09.551Z,4.47
2018-12-12T13:00:37.990Z,3.17
2018-12-12T13:03:06.439Z,3.05
2018-12-12T13:05:34.839Z,4.80
2018-12-12T13:08:03.291Z,4.37
2018-12-12T13:10:32.010Z,2.20
2018-12-12T13:13:00.422Z,6.00
2018-12-12T13:15:29.023Z,3.62
2018-12-12T13:17:57.340Z,3.45
2018-12-12T13:20:26.123Z,3.00
2018-12-12T13:22:54.452Z,5.95
2018-12-12T13:25:22.860Z,4.05
2018-12-12T13:27:51.215Z,3.85
2018-12-12T13:30:19.637Z,2.87
2018-12-12T13:32:47.965Z,3.52
2018-12-12T13:35:16.314Z,3.10
2018-12-12T13:37:44.623Z,3.40
2018-12-12T13:40:13.077Z,2.37
2018-12-12T13:42:41.399Z,5.10
2018-12-12T13:45:09.831Z,3.25
2018-12-12T13:47:38.248Z,3.22
2018-12-12T13:50:06.655Z,2.37
2018-12-12T13:52:35.003Z,6.87
2018-12-12T13:55:03.432Z,4.03
2018-12-12T13:57:31.848Z,2.75
2018-12-12T14:00:00.208Z,2.70
2018-12-12T14:02:28.533Z,4.55
2018-12-12T14:04:56.870Z,3.55
2018-12-12T14:07:25.259Z,3.40
2018-12-12T14:09:53.569Z,2.42
2018-12-12T14:12:21.897Z,3.85
2018-12-12T14:14:50.197Z,4.20
2018-12-12T14:17:18.625Z,4.00
2018-12-12T14:19:46.990Z,3.55
2018-12-12T14:22:15.308Z,2.87
2018-12-12T14:24:43.641Z,2.70
2018-12-12T14:27:11.980Z,2.37
2018-12-12T14:29:40.408Z,3.85
2018-12-12T14:32:08.750Z,2.77
2018-12-12T14:34:37.089Z,2.22
2018-12-12T14:37:05.404Z,2.87
2018-12-12T14:39:33.716Z,3.85
2018-12-12T14:42:02.078Z,4.47
2018-12-12T14:44:30.428Z,4.05
2018-12-12T14:46:58.853Z,2.83
2018-12-12T14:49:27.188Z,5.40
2018-12-12T14:51:55.553Z,5.10
2018-12-12T14:54:23.862Z,5.17
2018-12-12T14:56:52.199Z,3.70
2018-12-12T14:59:20.521Z,6.67
2018-12-12T15:01:48.837Z,9.28
2018-12-12T15:04:17.180Z,4.08
2018-12-12T15:06:45.511Z,4.00
2018-12-12T15:09:13.819Z,4.78
2018-12-12T15:11:42.191Z,4.70
2018-12-12T15:14:10.539Z,3.12
2018-12-12T15:16:38.947Z,5.10
2018-12-12T15:19:07.271Z,4.97
2018-12-12T15:21:35.681Z,4.60
2018-12-12T15:24:04.001Z,4.78
2018-12-12T15:26:32.377Z,4.47
2018-12-12T15:29:00.689Z,6.37
2018-12-12T15:31:29.025Z,4.10
2018-12-12T15:33:57.404Z,3.72
2018-12-12T15:36:25.760Z,5.87
2018-12-12T15:38:54.092Z,4.65
2018-12-12T15:41:22.421Z,6.42
2018-12-12T15:43:50.834Z,4.62
2018-12-12T15:46:19.165Z,3.77
2018-12-12T15:48:47.539Z,4.62
2018-12-12T15:51:15.964Z,5.08
2018-12-12T15:53:44.301Z,5.90
2018-12-12T15:56:12.652Z,5.30
2018-12-12T15:58:40.987Z,6.70
2018-12-12T16:01:09.747Z,3.87
2018-12-12T16:03:38.155Z,7.17
2018-12-12T16:06:06.610Z,7.65
2018-12-12T16:08:34.980Z,4.62
2018-12-12T16:11:08.237Z,5.20
2018-12-12T16:13:33.658Z,6.05
2018-12-12T16:16:02.088Z,4.58
2018-12-12T16:18:30.419Z,3.92
2018-12-12T16:21:00.244Z,4.25
2018-12-12T16:23:28.776Z,6.65
2018-12-12T16:25:57.130Z,7.85
2018-12-12T16:28:25.464Z,9.45
2018-12-12T16:30:53.774Z,7.30
2018-12-12T16:33:22.157Z,8.63
2018-12-12T16:35:50.547Z,5.80
2018-12-12T16:38:18.893Z,4.28
2018-12-12T16:40:47.208Z,3.42
2018-12-12T16:43:15.532Z,7.85
2018-12-12T16:45:43.846Z,5.45
2018-12-12T16:48:12.186Z,10.60
2018-12-12T16:50:40.518Z,16.32
2018-12-12T16:53:08.835Z,5.90
2018-12-12T16:55:37.176Z,5.90
2018-12-12T16:58:05.533Z,9.08
2018-12-12T17:00:33.897Z,7.28
2018-12-12T17:03:02.239Z,8.05
2018-12-12T17:05:30.610Z,8.68
2018-12-12T17:07:58.977Z,10.15
2018-12-12T17:10:27.311Z,11.03
2018-12-12T17:12:55.750Z,8.98
2018-12-12T17:15:24.120Z,15.72
2018-12-12T17:17:52.534Z,15.23
2018-12-12T17:20:20.889Z,14.28
2018-12-12T17:22:49.212Z,8.73
2018-12-12T17:25:17.614Z,8.23
2018-12-12T17:27:45.915Z,7.00
2018-12-12T17:30:14.312Z,8.88
2018-12-12T17:32:42.624Z,8.80
2018-12-12T17:35:10.988Z,6.10
2018-12-12T17:37:39.342Z,15.05
2018-12-12T17:40:07.877Z,8.03
2018-12-12T17:42:36.388Z,10.93
2018-12-12T17:45:05.330Z,15.05
2018-12-12T17:47:33.704Z,12.33
2018-12-12T17:50:02.056Z,10.13
2018-12-12T17:52:30.482Z,9.75
2018-12-12T17:54:59.289Z,8.70
2018-12-12T17:57:27.645Z,10.10
2018-12-12T17:59:56.357Z,6.85
2018-12-12T18:02:24.696Z,13.85
2018-12-12T18:04:53.077Z,8.25
2018-12-12T18:07:21.497Z,10.70
2018-12-12T18:09:49.895Z,7.12
2018-12-12T18:12:18.265Z,7.42
2018-12-12T18:14:46.684Z,8.13
2018-12-12T18:17:16.150Z,6.58
2018-12-12T18:19:44.482Z,7.90
2018-12-12T18:22:12.825Z,13.62
2018-12-12T18:24:41.569Z,17.92
2018-12-12T18:27:09.934Z,15.60
2018-12-12T18:29:38.430Z,21.57
2018-12-12T18:32:06.812Z,18.65
2018-12-12T18:34:35.267Z,31.27
2018-12-12T18:37:03.755Z,31.93
2018-12-12T18:39:32.258Z,27.07
2018-12-12T18:42:00.844Z,22.42
2018-12-12T18:44:29.236Z,19.75
2018-12-12T18:46:57.836Z,17.77
2018-12-12T18:49:26.254Z,15.63
2018-12-12T18:54:33.220Z,25.40
2018-12-12T18:57:01.591Z,21.17
2018-12-12T18:59:30.022Z,17.07
2018-12-12T19:01:58.373Z,17.57
2018-12-12T19:04:26.709Z,25.57
2018-12-12T19:06:55.051Z,23.15
2018-12-12T19:09:23.481Z,24.67
2018-12-12T19:11:51.899Z,13.10
2018-12-12T19:14:20.336Z,13.88
2018-12-12T19:16:48.695Z,14.60
2018-12-12T19:19:17.215Z,12.82
2018-12-12T19:21:45.713Z,18.82
2018-12-12T19:24:14.151Z,22.50
2018-12-12T19:26:42.508Z,9.93
2018-12-12T19:29:10.893Z,11.10
2018-12-12T19:31:39.416Z,13.03
2018-12-12T19:34:07.803Z,9.68
2018-12-12T19:36:36.191Z,17.82
2018-12-12T19:39:07.293Z,17.27
2018-12-12T19:41:35.771Z,11.48
2018-12-12T19:44:04.356Z,12.43
2018-12-12T19:46:32.827Z,10.28
2018-12-12T19:49:01.267Z,12.75
2018-12-12T19:51:29.598Z,13.90
2018-12-12T19:53:57.969Z,9.10
2018-12-12T19:56:26.336Z,12.10
2018-12-12T19:58:54.687Z,15.13
2018-12-12T20:01:23.064Z,13.55
2018-12-12T20:03:51.899Z,15.48
2018-12-12T20:06:20.295Z,12.03
2018-12-12T20:08:48.648Z,12.18
2018-12-12T20:11:16.975Z,12.70
2018-12-12T20:13:45.335Z,16.40
2018-12-12T20:16:13.738Z,21.00
2018-12-12T20:18:42.120Z,15.95
2018-12-12T20:21:10.567Z,16.50
2018-12-12T20:23:38.950Z,14.23
2018-12-12T20:26:07.407Z,17.67
2018-12-12T20:28:35.764Z,15.75
2018-12-12T20:31:04.162Z,13.60
2018-12-12T20:33:32.527Z,11.60
2018-12-12T20:36:00.881Z,7.87
2018-12-12T20:38:29.223Z,11.05
2018-12-12T20:40:57.647Z,13.90
2018-12-12T20:43:25.997Z,6.40
2018-12-12T20:45:54.327Z,11.50
2018-12-12T20:48:22.763Z,6.83
2018-12-12T20:50:51.184Z,8.85
2018-12-12T20:53:19.591Z,9.83
2018-12-12T20:55:47.972Z,10.78
2018-12-12T20:58:16.388Z,8.48
2018-12-12T21:00:44.848Z,8.48
2018-12-12T21:03:13.199Z,9.73
2018-12-12T21:05:41.544Z,6.70
2018-12-12T21:08:09.879Z,6.00
2018-12-12T21:10:38.221Z,7.20
2018-12-12T21:13:06.543Z,5.05
2018-12-12T21:15:34.887Z,7.25
2018-12-12T21:18:03.222Z,5.15
2018-12-12T21:20:31.794Z,8.93
2018-12-12T21:23:00.161Z,5.35
2018-12-12T21:25:30.530Z,5.35
2018-12-12T21:27:58.991Z,6.75
2018-12-12T21:30:28.285Z,9.48
2018-12-12T21:32:56.740Z,6.55
2018-12-12T21:35:25.123Z,7.67
2018-12-12T21:37:53.469Z,5.92
2018-12-12T21:40:21.940Z,7.47
2018-12-12T21:42:50.269Z,9.35
2018-12-12T21:45:18.660Z,6.83
2018-12-12T21:47:47.084Z,7.40
2018-12-12T21:50:15.436Z,8.53
2018-12-12T21:52:43.799Z,5.35
2018-12-12T21:55:12.223Z,8.00
2018-12-12T21:57:40.685Z,7.37
2018-12-12T22:00:09.252Z,4.70
2018-12-12T22:02:37.652Z,8.73
2018-12-12T22:05:06.275Z,4.80
2018-12-12T22:07:34.788Z,8.05
2018-12-12T22:10:03.523Z,6.58
2018-12-12T22:12:31.847Z,9.08
2018-12-12T22:15:00.224Z,6.37
2018-12-12T22:17:28.580Z,8.05
2018-12-12T22:19:56.960Z,4.45
2018-12-12T22:22:25.285Z,7.62
2018-12-12T22:24:53.624Z,6.42
2018-12-12T22:27:22.024Z,10.90
2018-12-12T22:29:50.390Z,7.37
2018-12-12T22:32:18.761Z,6.65
2018-12-12T22:34:47.084Z,6.25
2018-12-12T22:37:15.447Z,6.30
2018-12-12T22:39:43.900Z,6.95
2018-12-12T22:42:12.276Z,8.78
2018-12-12T22:44:40.633Z,7.22
2018-12-12T22:47:08.971Z,4.78
2018-12-12T22:49:37.295Z,7.25
2018-12-12T22:52:05.700Z,5.40
2018-12-12T22:54:34.040Z,6.45
2018-12-12T22:57:02.400Z,6.30
2018-12-12T22:59:30.774Z,6.33
2018-12-12T23:01:59.190Z,7.05
2018-12-12T23:04:27.540Z,5.62
2018-12-12T23:06:55.863Z,4.20
2018-12-12T23:09:24.263Z,5.75
2018-12-12T23:11:52.591Z,6.85
2018-12-12T23:14:21.054Z,5.75
2018-12-12T23:16:49.398Z,5.20
2018-12-12T23:19:17.821Z,7.22
2018-12-12T23:21:46.196Z,5.85
2018-12-12T23:24:14.569Z,6.65
2018-12-12T23:26:42.904Z,6.03
2018-12-12T23:29:11.223Z,5.58
2018-12-12T23:31:39.580Z,5.20
2018-12-12T23:34:07.924Z,4.53
2018-12-12T23:36:36.271Z,8.03
2018-12-12T23:39:06.597Z,4.75
2018-12-12T23:41:35.046Z,9.08
2018-12-12T23:44:03.475Z,6.97
2018-12-12T23:46:32.279Z,5.03
2018-12-12T23:49:00.622Z,5.42
2018-12-12T23:51:29.011Z,6.45
2018-12-12T23:53:57.346Z,7.53
2018-12-12T23:56:25.652Z,7.08
2018-12-12T23:58:53.991Z,4.92
